This is the latest recevied weather packets stored in our database for station/object KD8UYA. If no packets are shown the sender has not sent any weather packets the latest 10 day(s).
| Time | Temp. | Humidity | Pressure | Rain* | Wind** | Luminosity | Snow |
|---|---|---|---|---|---|---|---|
| 1777991431 | 17.78° C | 73% | 1003.7 hPa | 0 mm | - | - | - |
| 1777990532 | 17.78° C | 74% | 1003.5 hPa | 0 mm | - | - | - |
| 1777989631 | 17.22° C | 75% | 1003.4 hPa | 0 mm | - | - | - |
| 1777988729 | 17.22° C | 77% | 1003.7 hPa | 0 mm | - | - | - |
| 1777987837 | 16.11° C | 79% | 1003.6 hPa | 0 mm | - | - | - |
| 1777986928 | 15.56° C | 80% | 1003.3 hPa | 0 mm | - | - | - |
| 1777986028 | 15.56° C | 81% | 1003.7 hPa | 0 mm | - | - | - |
| 1777985126 | 15.56° C | 81% | 1003.7 hPa | 0 mm | - | - | - |
| 1777984225 | 15.56° C | 81% | 1003.4 hPa | 0 mm | - | - | - |
| 1777983323 | 15.56° C | 80% | 1003.2 hPa | 0 mm | - | - | - |
| 1777982420 | 15.56° C | 79% | 1002.7 hPa | 0 mm | - | - | - |
| 1777981519 | 15° C | 80% | 1002.3 hPa | 0 mm | - | - | - |
| 1777980620 | 15° C | 82% | 1002.2 hPa | 0 mm | - | - | - |
| 1777979714 | 15.56° C | 80% | 1002.5 hPa | 0 mm | - | - | - |
| 1777978809 | 16.67° C | 72% | 1002.5 hPa | 0 mm | - | - | - |
| 1777977906 | 16.67° C | 72% | 1002.3 hPa | 0 mm | - | - | - |
| 1777977006 | 17.22° C | 72% | 1002.1 hPa | 0 mm | - | - | - |
| 1777976105 | 17.22° C | 72% | 1002.1 hPa | 0 mm | - | - | - |
| 1777975262 | 17.22° C | 71% | 1001.8 hPa | 0 mm | - | - | - |
| 1777974357 | 17.78° C | 69% | 1001.7 hPa | 0 mm | - | - | - |
| 1777973455 | 18.33° C | 68% | 1001.3 hPa | 0 mm | - | - | - |
| 1777972554 | 18.33° C | 67% | 1001.2 hPa | 0 mm | - | - | - |
| 1777971664 | 18.33° C | 67% | 1000.9 hPa | 0 mm | - | - | - |
| 1777970754 | 18.33° C | 67% | 1001.1 hPa | 0 mm | - | - | - |
| 1777969857 | 18.33° C | 67% | 1000.9 hPa | 0 mm | - | - | - |
* Rain latest hour (hover to see other rain measurements)
** Current wind speed in m/s (hover to see current wind gust speed)